Página principal
METAR-TAF:

METAR-TAF

Aeroportos :

Aeroporto Internacional da Cidade do Cabo

Cidade do Cabo, África do Sul

latitude: 33-59S, longitude: 018-36E, altura: 42 m

Observação actual do tempo

O boletim foi feito há 39 minutos, às 06:00 UTC
Vento 10 kt de sul
Temperatura 18°C
Humidade 64%
Pressão 1023 hPa
Visibilidade 10 km ou mais
Nuvens fragmentadasa uma altura de 4700 ft

METAR: FACT 170600Z 18010KT 9999 BKN047 18/11 Q1023 NOSIG

Hora: 08:39 (06:39 UTC)

Previsão

O boletim foi feito há 2 horas e 39 minutos, às 04:00 UTC
Previsão válida de 17 às 06 UTC a 18 às 12 UTC
Vento 15 kt de sul
Visibilidade 10 km ou mais
Poucas nuvensa uma altura de 4000 ft

TAF: FACT 170400Z 1706/1812 18015KT 9999 FEW040 TX28/1812Z TN13/1804Z

Observações e previsões do tempo de mais de 4000 aeroportos (mensagens METAR e TAF).

As estações disponíveis são os pontos amarelos e vermelhos sobre o mapa.

Mova o rato sobre o mapa para ver o nome da estação.

Depois clique no ponto para visualizar as observações e previsões meteorológicas.

Para alterar o mapa : clique nos botões verdes com uma cruz preta para aumentar o zoom; no botão verde com uma pitada de zoom; ou nas setas verdes para mapas adjacentes.


METAR-TAF: